Time;durP1;ratioP1;P1;durP2;ratioP2;P2;SDS_P1;SDS_P2;PMS_P1;PMS_P2;Temp;Humidity;BMP_temperature;BMP_pressure;BME280_temperature;BME280_humidity;BME280_pressure;Samples;Min_cycle;Max_cycle;Signal;HPM_P1;HPM_P2
2023/01/28 00:01:49;;;;;;;5.37;1.07;;;;;;;0.06;97.40;102187.09;5056279;28;20468;-67
2023/01/28 00:04:15;;;;;;;5.77;1.70;;;;;;;-0.03;97.68;102196.22;5056168;28;20521;-66
2023/01/28 00:06:42;;;;;;;7.30;1.17;;;;;;;-0.09;98.60;102197.81;5055804;28;21081;-66
2023/01/28 00:09:09;;;;;;;4.80;1.00;;;;;;;-0.13;99.01;102199.22;5055857;28;20449;-66
2023/01/28 00:11:36;;;;;;;5.53;1.20;;;;;;;-0.12;99.06;102205.34;5056090;28;20812;-66
2023/01/28 00:14:03;;;;;;;5.30;1.03;;;;;;;-0.13;99.15;102203.72;5056051;28;20537;-67
2023/01/28 00:16:30;;;;;;;5.07;1.20;;;;;;;-0.16;98.26;102198.75;5055937;28;20454;-67
2023/01/28 00:18:58;;;;;;;5.77;1.37;;;;;;;-0.22;99.37;102199.50;5055882;28;20443;-67
2023/01/28 00:21:25;;;;;;;6.83;1.93;;;;;;;-0.22;99.69;102208.34;5055597;28;20541;-67
2023/01/28 00:23:53;;;;;;;5.00;1.33;;;;;;;-0.16;99.36;102209.41;5055896;28;20519;-67
2023/01/28 00:26:21;;;;;;;7.43;1.73;;;;;;;-0.24;99.75;102212.19;5055393;28;20496;-67
2023/01/28 00:28:48;;;;;;;4.80;1.23;;;;;;;-0.17;99.37;102213.91;5055766;28;20441;-67
2023/01/28 00:31:16;;;;;;;5.27;1.20;;;;;;;-0.23;99.82;102208.50;5055732;28;20525;-67
2023/01/28 00:33:43;;;;;;;4.80;1.37;;;;;;;-0.16;99.61;102209.41;5055725;28;20824;-67
2023/01/28 00:36:12;;;;;;;6.63;1.60;;;;;;;-0.12;98.87;102208.03;5055625;28;20498;-67
2023/01/28 00:38:38;;;;;;;8.30;1.70;;;;;;;-0.19;99.18;102215.09;5054469;28;21106;-68
2023/01/28 00:41:09;;;;;;;6.40;1.27;;;;;;;-0.13;98.49;102209.88;5055155;28;20966;-67
2023/01/28 00:43:36;;;;;;;5.77;1.40;;;;;;;-0.05;98.30;102216.88;5055262;28;20445;-67
2023/01/28 00:46:03;;;;;;;8.13;1.87;;;;;;;-0.13;98.73;102209.88;5055183;28;20482;-67
2023/01/28 00:48:29;;;;;;;9.20;2.00;;;;;;;-0.09;98.42;102211.13;5055285;28;20470;-67
2023/01/28 00:50:56;;;;;;;7.33;1.80;;;;;;;-0.05;98.35;102211.56;5054948;28;20521;-67
2023/01/28 00:53:24;;;;;;;8.37;2.00;;;;;;;0.08;98.18;102203.69;5054949;28;20970;-67
2023/01/28 00:55:51;;;;;;;6.50;2.10;;;;;;;0.14;97.92;102205.59;5055109;28;20545;-67
2023/01/28 00:58:19;;;;;;;13.20;2.47;;;;;;;0.13;98.08;102214.59;5055218;28;20456;-67
2023/01/28 01:00:45;;;;;;;8.20;2.27;;;;;;;0.20;98.43;102215.50;5055156;28;20477;-66
2023/01/28 01:03:12;;;;;;;14.33;2.30;;;;;;;0.26;98.47;102213.88;5055123;28;20434;-67
2023/01/28 01:05:38;;;;;;;8.70;2.30;;;;;;;0.30;98.27;102219.66;5054923;28;20496;-67
2023/01/28 01:08:05;;;;;;;9.20;2.10;;;;;;;0.40;97.90;102214.81;5055046;28;20465;-67
2023/01/28 01:10:33;;;;;;;9.40;2.20;;;;;;;0.47;97.15;102215.72;5055005;28;20444;-67
2023/01/28 01:13:00;;;;;;;9.40;2.27;;;;;;;0.47;96.72;102213.84;5054533;28;20438;-67
2023/01/28 01:15:27;;;;;;;11.57;1.93;;;;;;;0.56;95.96;102214.53;5054450;28;21002;-67
2023/01/28 01:17:53;;;;;;;7.30;2.20;;;;;;;0.50;96.42;102210.81;5054819;28;20529;-67
2023/01/28 01:20:22;;;;;;;7.47;1.77;;;;;;;0.54;96.53;102203.25;5054926;28;20446;-67
2023/01/28 01:22:49;;;;;;;7.80;2.17;;;;;;;0.57;96.02;102213.50;5054349;28;20887;-67
2023/01/28 01:25:17;;;;;;;6.90;2.03;;;;;;;0.54;96.26;102208.59;5054346;28;20494;-67
2023/01/28 01:27:47;;;;;;;7.83;2.10;;;;;;;0.64;95.38;102211.72;5055054;28;20454;-66
2023/01/28 01:30:15;;;;;;;6.03;1.70;;;;;;;0.67;94.56;102205.19;5054649;28;20442;-66
2023/01/28 01:32:42;;;;;;;11.10;2.30;;;;;;;0.69;94.91;102209.31;5054376;28;20470;-67
2023/01/28 01:35:10;;;;;;;8.00;2.13;;;;;;;0.67;94.29;102208.69;5054635;28;20458;-67
2023/01/28 01:37:37;;;;;;;7.40;2.23;;;;;;;0.58;94.36;102217.84;5054633;28;20528;-66
2023/01/28 01:40:04;;;;;;;8.33;2.10;;;;;;;0.49;94.94;102222.50;5055002;28;20441;-67
2023/01/28 01:42:32;;;;;;;7.60;2.20;;;;;;;0.60;93.89;102217.66;5054140;28;20808;-67
2023/01/28 01:45:03;;;;;;;5.40;1.73;;;;;;;0.66;93.47;102223.00;5053923;28;20469;-67
2023/01/28 01:47:36;;;;;;;9.43;2.83;;;;;;;0.71;93.71;102223.28;5054000;28;20431;-67
2023/01/28 01:50:06;;;;;;;8.53;2.07;;;;;;;0.77;94.27;102227.00;5054160;28;20857;-67
2023/01/28 01:52:35;;;;;;;6.50;1.90;;;;;;;0.82;93.62;102226.41;5054211;28;20415;-67
2023/01/28 01:55:06;;;;;;;8.40;2.00;;;;;;;0.82;93.63;102226.41;5053738;28;20541;-67
2023/01/28 01:57:36;;;;;;;8.10;2.63;;;;;;;0.86;93.76;102227.66;5053814;28;20931;-67
2023/01/28 02:00:07;;;;;;;6.70;1.80;;;;;;;0.84;93.52;102229.69;5053829;28;20939;-67
2023/01/28 02:02:41;;;;;;;6.83;1.67;;;;;;;0.91;93.58;102230.56;5054107;28;20426;-67
2023/01/28 02:05:10;;;;;;;7.70;2.20;;;;;;;0.83;93.41;102228.88;5053960;28;20464;-67
2023/01/28 02:07:38;;;;;;;7.77;1.60;;;;;;;0.80;93.50;102236.44;5053929;28;20449;-67
2023/01/28 02:10:07;;;;;;;7.47;2.53;;;;;;;0.72;93.88;102234.75;5053744;28;21013;-67
2023/01/28 02:12:36;;;;;;;6.77;1.80;;;;;;;0.79;93.32;102232.13;5053923;28;20473;-67
2023/01/28 02:15:08;;;;;;;11.03;2.17;;;;;;;0.88;93.59;102234.44;5053668;28;20464;-67
2023/01/28 02:17:36;;;;;;;8.53;2.40;;;;;;;0.77;95.30;102226.19;5053563;28;20429;-67
2023/01/28 02:20:05;;;;;;;5.80;2.17;;;;;;;0.71;95.17;102220.63;5053644;28;20528;-67
2023/01/28 02:23:03;;;;;;;8.73;1.77;;;;;;;0.74;95.04;102228.19;5053608;28;20442;-66
2023/01/28 02:26:03;;;;;;;7.90;2.17;;;;;;;0.80;95.36;102228.44;5053165;28;20486;-67
2023/01/28 02:28:40;;;;;;;11.13;2.07;;;;;;;0.91;94.71;102222.56;5053390;28;20429;-67
2023/01/28 02:31:15;;;;;;;7.67;2.10;;;;;;;0.97;94.48;102219.94;5053532;28;20805;-67
2023/01/28 02:33:49;;;;;;;11.83;3.17;;;;;;;0.96;94.20;102220.94;5053413;28;20505;-68
2023/01/28 02:36:22;;;;;;;10.83;2.43;;;;;;;1.03;93.81;102229.00;5053385;28;20455;-68
2023/01/28 02:38:52;;;;;;;6.63;2.40;;;;;;;0.99;93.54;102230.41;5053089;28;20506;-67
2023/01/28 02:41:24;;;;;;;6.10;2.00;;;;;;;1.01;93.51;102233.69;5053356;28;20799;-68
2023/01/28 02:43:52;;;;;;;6.73;2.00;;;;;;;1.03;93.58;102242.34;5053283;28;20506;-68
2023/01/28 02:49:11;;;;;;;9.60;2.77;;;;;;;1.10;91.87;102237.03;5053205;28;20492;-67
2023/01/28 02:51:53;;;;;;;5.63;1.90;;;;;;;1.05;91.01;102240.28;5053271;28;20513;-68
2023/01/28 02:54:32;;;;;;;6.60;2.23;;;;;;;0.98;90.79;102237.59;5052780;28;20422;-67
2023/01/28 02:57:07;;;;;;;8.90;2.00;;;;;;;0.97;90.79;102235.09;5052804;28;20880;-67
2023/01/28 02:59:42;;;;;;;8.23;2.00;;;;;;;0.99;90.82;102235.75;5053118;28;20434;-68
2023/01/28 03:02:17;;;;;;;5.53;1.63;;;;;;;0.97;90.18;102241.28;5052408;28;20430;-67
2023/01/28 03:04:50;;;;;;;6.50;2.17;;;;;;;0.93;90.78;102231.19;5053056;28;20484;-68
2023/01/28 03:07:18;;;;;;;5.80;1.80;;;;;;;0.97;91.99;102233.28;5052702;28;21036;-67
2023/01/28 03:09:47;;;;;;;6.57;2.10;;;;;;;1.09;91.16;102241.56;5053029;28;20538;-68
2023/01/28 03:37:33;;;;;;;6.20;1.40;;;;;;;1.00;89.59;102232.88;5052670;28;20405;-67
2023/01/28 03:40:05;;;;;;;7.00;2.03;;;;;;;1.06;89.20;102233.94;5052842;28;20457;-67
2023/01/28 03:42:32;;;;;;;7.73;1.80;;;;;;;0.99;88.77;102246.44;5052778;28;20514;-67
2023/01/28 03:45:00;;;;;;;6.93;2.10;;;;;;;1.06;89.18;102239.25;5052596;28;20485;-67
2023/01/28 03:47:30;;;;;;;9.47;2.37;;;;;;;0.94;90.14;102238.19;5052612;28;20525;-67
2023/01/28 03:49:59;;;;;;;7.90;2.77;;;;;;;0.86;90.59;102246.34;5052925;28;20475;-67
2023/01/28 03:52:28;;;;;;;7.30;2.20;;;;;;;0.81;90.77;102236.25;5052605;28;20448;-67
2023/01/28 03:54:55;;;;;;;6.40;1.43;;;;;;;0.94;91.02;102235.53;5052236;28;20557;-67
2023/01/28 03:57:24;;;;;;;5.53;1.30;;;;;;;1.07;90.39;102232.94;5052612;28;20441;-67
2023/01/28 03:59:51;;;;;;;5.93;1.57;;;;;;;1.15;89.95;102230.09;5052543;28;20485;-67
2023/01/28 04:02:19;;;;;;;7.53;2.23;;;;;;;1.20;90.37;102233.00;5052250;28;20438;-67
2023/01/28 04:04:48;;;;;;;8.13;2.00;;;;;;;1.13;91.24;102234.81;5052440;28;20458;-67
2023/01/28 04:07:15;;;;;;;5.20;1.40;;;;;;;1.03;92.05;102237.00;5052425;28;20482;-67
2023/01/28 04:09:43;;;;;;;5.90;1.63;;;;;;;1.02;92.34;102230.03;5052493;28;20434;-67
2023/01/28 04:12:10;;;;;;;8.63;2.23;;;;;;;1.17;91.91;102235.25;5052480;28;20445;-67
2023/01/28 04:14:38;;;;;;;11.07;2.13;;;;;;;1.24;91.03;102228.09;5055493;28;20502;-67
2023/01/28 04:17:06;;;;;;;7.67;2.10;;;;;;;1.31;90.38;102228.13;5056081;28;20446;-67
2023/01/28 04:19:35;;;;;;;9.87;1.90;;;;;;;1.12;91.94;102227.81;5055967;28;20520;-67
2023/01/28 04:22:05;;;;;;;11.40;2.23;;;;;;;1.12;91.90;102230.50;5055963;28;20438;-67
2023/01/28 04:24:31;;;;;;;5.80;1.27;;;;;;;1.11;91.31;102236.03;5055425;28;20468;-67
2023/01/28 04:26:58;;;;;;;7.40;1.67;;;;;;;1.04;92.25;102227.97;5055811;28;20557;-67
2023/01/28 04:29:24;;;;;;;11.57;1.57;;;;;;;1.06;92.45;102233.94;5055826;28;20444;-68
2023/01/28 04:31:51;;;;;;;6.87;2.37;;;;;;;1.12;91.20;102235.84;5055913;28;20521;-67
2023/01/28 04:34:19;;;;;;;6.60;2.00;;;;;;;1.19;90.96;102236.66;5055792;28;20442;-67
2023/01/28 04:36:45;;;;;;;6.30;1.90;;;;;;;1.21;90.25;102236.50;5055793;28;20450;-67
2023/01/28 04:39:14;;;;;;;6.13;2.00;;;;;;;1.30;89.92;102231.81;5055222;28;20985;-67
2023/01/28 04:41:40;;;;;;;5.80;2.13;;;;;;;1.22;89.52;102236.28;5055163;28;20961;-67
2023/01/28 04:44:07;;;;;;;15.40;2.13;;;;;;;1.27;90.02;102233.84;5055217;28;20453;-67
2023/01/28 04:46:33;;;;;;;5.20;1.60;;;;;;;1.27;90.63;102233.84;5055001;28;20994;-67
2023/01/28 04:49:00;;;;;;;10.20;2.90;;;;;;;1.23;90.65;102232.59;5055430;28;20442;-67
2023/01/28 04:51:27;;;;;;;8.40;2.83;;;;;;;1.21;90.00;102231.16;5055397;28;20450;-67
2023/01/28 04:53:54;;;;;;;6.37;2.37;;;;;;;1.21;89.79;102228.47;5055308;28;20493;-67
2023/01/28 04:56:22;;;;;;;15.43;3.40;;;;;;;1.30;89.94;102226.47;5055250;28;20461;-67
2023/01/28 04:58:48;;;;;;;13.13;3.57;;;;;;;1.24;90.98;102228.91;5055170;28;20439;-67
2023/01/28 05:01:15;;;;;;;9.07;3.50;;;;;;;1.25;90.82;102235.06;5055429;28;20438;-67
2023/01/28 05:03:41;;;;;;;13.20;3.13;;;;;;;1.29;90.60;102230.16;5055142;28;20538;-67
2023/01/28 05:06:09;;;;;;;7.77;2.83;;;;;;;1.21;90.62;102245.31;5054681;28;21021;-67
2023/01/28 05:08:35;;;;;;;9.60;3.13;;;;;;;1.09;91.00;102238.88;5054740;28;20442;-66
2023/01/28 05:11:02;;;;;;;16.00;4.00;;;;;;;1.04;92.13;102248.50;5054732;28;20537;-67
2023/01/28 05:13:30;;;;;;;8.67;2.90;;;;;;;1.10;92.60;102253.88;5054643;28;20942;-67
2023/01/28 05:15:57;;;;;;;12.77;3.17;;;;;;;1.22;92.29;102248.81;5054506;28;20489;-67
2023/01/28 05:18:23;;;;;;;11.40;2.80;;;;;;;1.31;92.37;102246.78;5054924;28;20442;-67
2023/01/28 05:20:50;;;;;;;7.20;2.10;;;;;;;1.26;92.36;102256.22;5054507;28;21019;-67
2023/01/28 05:23:16;;;;;;;11.20;2.70;;;;;;;1.26;91.27;102258.88;5054752;28;20473;-67
2023/01/28 05:25:44;;;;;;;9.57;2.33;;;;;;;1.25;90.24;102254.56;5079602;22;20494;-69
2023/01/28 05:28:11;;;;;;;11.83;3.23;;;;;;;1.26;89.54;102255.41;5054779;28;20474;-69
2023/01/28 05:30:39;;;;;;;8.50;2.80;;;;;;;1.23;87.54;102263.78;5054742;28;20525;-69
2023/01/28 05:33:06;;;;;;;8.23;2.27;;;;;;;1.26;87.24;102269.56;5054423;28;20445;-69
2023/01/28 05:35:32;;;;;;;5.70;2.23;;;;;;;1.14;87.79;102262.31;5053737;28;20865;-68
2023/01/28 05:37:59;;;;;;;9.27;2.70;;;;;;;1.32;87.91;102259.94;5054531;28;20529;-69
2023/01/28 05:40:26;;;;;;;8.33;3.20;;;;;;;1.39;86.90;102263.47;5054482;28;20437;-69
2023/01/28 05:42:52;;;;;;;9.10;2.70;;;;;;;1.46;87.14;102258.16;5054340;28;20454;-68
2023/01/28 05:45:19;;;;;;;6.87;2.10;;;;;;;1.49;86.91;102255.09;5053926;28;20528;-68
2023/01/28 05:47:47;;;;;;;8.50;2.60;;;;;;;1.43;86.69;102253.22;5053873;28;20486;-69
2023/01/28 05:50:15;;;;;;;10.47;3.07;;;;;;;1.39;87.13;102252.78;5054337;28;20558;-69
2023/01/28 05:52:41;;;;;;;9.73;2.50;;;;;;;1.32;87.50;102259.94;5054304;28;20450;-68
2023/01/28 05:55:09;;;;;;;8.53;2.80;;;;;;;1.24;89.35;102258.28;5054282;28;20442;-68
2023/01/28 05:57:36;;;;;;;6.13;2.10;;;;;;;1.34;88.62;102249.06;5054262;28;20470;-69
2023/01/28 06:00:04;;;;;;;8.83;3.30;;;;;;;1.40;87.95;102250.94;5053853;28;20446;-69
2023/01/28 06:02:31;;;;;;;7.30;2.63;;;;;;;1.45;87.03;102256.50;5054169;28;20446;-69
2023/01/28 06:04:59;;;;;;;7.13;2.53;;;;;;;1.43;87.91;102253.22;5053810;28;20481;-68
2023/01/28 06:07:25;;;;;;;7.33;2.47;;;;;;;1.33;89.00;102253.59;5053928;28;20632;-69
2023/01/28 06:09:52;;;;;;;7.63;2.93;;;;;;;1.37;88.49;102256.66;5053869;28;20442;-68
2023/01/28 06:12:18;;;;;;;5.70;2.27;;;;;;;1.40;88.34;102258.94;5053979;28;20438;-68
2023/01/28 06:14:45;;;;;;;7.70;3.00;;;;;;;1.28;89.09;102261.34;5053852;28;20850;-69
2023/01/28 06:17:12;;;;;;;9.47;2.97;;;;;;;1.35;89.23;102261.41;5053662;28;20842;-69
2023/01/28 06:19:38;;;;;;;7.93;2.77;;;;;;;1.42;89.36;102267.59;5053286;28;20478;-68
2023/01/28 06:22:06;;;;;;;9.37;3.53;;;;;;;1.45;88.64;102268.00;5053591;28;20453;-68
2023/01/28 06:24:33;;;;;;;11.07;2.70;;;;;;;1.34;88.51;102259.75;5053537;28;20481;-68
2023/01/28 06:26:59;;;;;;;9.10;3.07;;;;;;;1.27;90.08;102260.53;5052917;28;20498;-69
2023/01/28 06:29:26;;;;;;;8.23;2.40;;;;;;;1.30;89.92;102269.19;5053383;28;20448;-69
2023/01/28 06:31:53;;;;;;;6.87;2.50;;;;;;;1.37;89.70;102272.69;5053309;28;20485;-68
2023/01/28 06:34:19;;;;;;;7.17;2.57;;;;;;;1.41;89.99;102261.41;5053174;28;20869;-66
2023/01/28 06:36:46;;;;;;;8.70;2.00;;;;;;;1.42;90.35;102264.94;5052345;28;20856;-68
2023/01/28 06:39:14;;;;;;;6.43;2.50;;;;;;;1.37;89.88;102270.03;5053403;28;20454;-68
2023/01/28 06:41:41;;;;;;;8.83;2.87;;;;;;;1.34;89.85;102273.09;5053150;28;20445;-68
2023/01/28 06:44:07;;;;;;;10.00;3.70;;;;;;;1.33;89.39;102274.94;5053125;28;20464;-69
2023/01/28 06:46:34;;;;;;;7.20;1.97;;;;;;;1.37;89.45;102275.34;5052717;28;20814;-68
2023/01/28 06:49:01;;;;;;;8.03;2.47;;;;;;;1.45;89.64;102272.53;5053091;28;20448;-68
2023/01/28 06:51:27;;;;;;;6.30;2.07;;;;;;;1.42;89.83;102272.94;5052873;28;20459;-68
2023/01/28 06:53:54;;;;;;;12.73;1.90;;;;;;;1.31;89.90;102278.81;5052926;28;20815;-68
2023/01/28 06:56:23;;;;;;;12.13;3.30;;;;;;;1.29;90.71;102273.69;5052845;28;20569;-68
2023/01/28 06:58:50;;;;;;;5.67;1.87;;;;;;;1.37;90.12;102286.03;5052907;28;20910;-68
2023/01/28 07:01:17;;;;;;;6.20;1.83;;;;;;;1.21;89.81;102282.69;5052697;28;20501;-67
2023/01/28 07:03:43;;;;;;;7.53;2.40;;;;;;;1.21;90.71;102293.34;5052593;28;20829;-68
2023/01/28 07:06:10;;;;;;;6.60;2.30;;;;;;;1.23;91.33;102285.13;5052970;28;20494;-67
2023/01/28 07:08:38;;;;;;;7.77;2.70;;;;;;;1.40;90.67;102288.31;5052923;28;20524;-68
2023/01/28 07:11:05;;;;;;;7.87;2.07;;;;;;;1.43;90.36;102280.75;5052649;28;20978;-68
2023/01/28 07:13:33;;;;;;;6.73;2.40;;;;;;;1.34;90.15;102281.13;5053129;28;20454;-68
2023/01/28 07:16:00;;;;;;;8.60;2.47;;;;;;;1.45;90.53;102283.19;5053239;28;20469;-68
2023/01/28 07:18:27;;;;;;;8.50;3.70;;;;;;;1.49;90.67;102287.94;5052790;28;20928;-68
2023/01/28 07:20:53;;;;;;;8.13;2.80;;;;;;;1.49;90.44;102287.13;5052941;28;20449;-69
2023/01/28 07:23:20;;;;;;;12.33;4.00;;;;;;;1.55;90.84;102278.34;5053179;28;20441;-67
2023/01/28 07:25:47;;;;;;;16.27;4.30;;;;;;;1.50;90.09;102281.56;5052416;28;20470;-66
2023/01/28 07:28:19;;;;;;;9.40;3.37;;;;;;;1.53;90.40;102280.38;5052893;28;20468;-65
2023/01/28 07:30:48;;;;;;;7.43;2.17;;;;;;;1.55;90.13;102280.16;5052854;28;20454;-66
2023/01/28 07:33:15;;;;;;;6.67;2.40;;;;;;;1.57;90.64;102278.94;5052871;28;20447;-68
2023/01/28 07:35:41;;;;;;;6.10;1.70;;;;;;;1.61;89.46;102282.88;5052562;28;20913;-67
2023/01/28 07:38:08;;;;;;;6.30;1.60;;;;;;;1.57;88.54;102276.28;5052822;28;20470;-68
2023/01/28 07:40:35;;;;;;;6.60;1.90;;;;;;;1.65;87.70;102281.44;5052703;28;20541;-66
2023/01/28 07:43:01;;;;;;;7.43;1.83;;;;;;;1.69;85.61;102277.38;5052312;28;20973;-66
2023/01/28 07:45:29;;;;;;;5.30;1.70;;;;;;;1.75;83.75;102279.22;5052571;28;20536;-66
2023/01/28 07:47:59;;;;;;;6.07;1.40;;;;;;;1.77;83.44;102279.88;5054956;28;20540;-65
2023/01/28 07:50:27;;;;;;;5.30;1.20;;;;;;;1.73;83.05;102278.63;5056591;28;20434;-65
2023/01/28 07:52:54;;;;;;;5.00;1.60;;;;;;;1.75;82.90;102287.22;5056437;28;20882;-64
2023/01/28 07:55:21;;;;;;;7.30;1.37;;;;;;;1.81;82.24;102284.78;5056337;28;20434;-64
2023/01/28 07:57:53;;;;;;;5.37;1.40;;;;;;;1.80;81.38;102283.97;5056413;28;20434;-65
2023/01/28 08:00:20;;;;;;;5.30;1.10;;;;;;;1.80;81.19;102288.47;5056304;28;20444;-64
2023/01/28 08:02:47;;;;;;;8.20;1.50;;;;;;;1.85;81.63;102294.88;5055959;28;20982;-65
2023/01/28 08:05:17;;;;;;;5.17;1.30;;;;;;;1.91;81.89;102295.94;5056200;28;20503;-65
2023/01/28 08:07:44;;;;;;;5.40;1.67;;;;;;;1.92;81.84;102295.72;5056170;28;20482;-65
2023/01/28 08:10:11;;;;;;;4.53;1.10;;;;;;;1.93;80.61;102296.53;5056167;28;20442;-65
2023/01/28 08:12:38;;;;;;;6.37;1.97;;;;;;;1.96;80.63;102294.31;5056182;28;20473;-63
2023/01/28 08:15:06;;;;;;;5.10;1.50;;;;;;;1.97;81.05;102297.78;5056142;28;20822;-65
2023/01/28 08:17:33;;;;;;;5.30;1.70;;;;;;;2.09;80.83;102306.06;5055585;28;20493;-63
2023/01/28 08:19:59;;;;;;;5.70;1.47;;;;;;;2.04;80.94;102304.00;5055975;28;20456;-65
2023/01/28 08:22:28;;;;;;;5.30;1.60;;;;;;;2.09;81.07;102316.75;5055928;28;20441;-65
2023/01/28 08:24:54;;;;;;;6.23;1.60;;;;;;;2.01;80.16;102312.41;5055522;28;20969;-64
2023/01/28 08:27:21;;;;;;;6.40;1.80;;;;;;;2.11;80.44;102315.50;5055346;28;20493;-65
2023/01/28 08:29:47;;;;;;;9.70;2.13;;;;;;;2.12;80.68;102319.81;5055479;28;20454;-65
2023/01/28 08:32:14;;;;;;;6.23;1.70;;;;;;;2.17;80.85;102322.72;5055678;28;20826;-66
2023/01/28 08:34:40;;;;;;;7.00;1.60;;;;;;;2.32;80.97;102319.88;5055564;28;20446;-66
2023/01/28 08:37:07;;;;;;;5.60;1.57;;;;;;;2.40;81.73;102332.25;5055457;28;20544;-65
2023/01/28 08:39:35;;;;;;;5.33;1.37;;;;;;;2.32;82.04;102332.44;5055533;28;20445;-65
2023/01/28 08:42:01;;;;;;;6.33;1.50;;;;;;;2.51;81.82;102328.94;5055194;28;20904;-65
2023/01/28 08:44:28;;;;;;;5.47;1.50;;;;;;;2.51;81.61;102326.28;5055489;28;20444;-65
2023/01/28 08:46:54;;;;;;;5.60;1.20;;;;;;;2.49;81.55;102331.84;5055299;28;20549;-64
2023/01/28 08:49:21;;;;;;;7.70;1.00;;;;;;;2.54;81.49;102339.25;5055321;28;20493;-65
2023/01/28 08:51:48;;;;;;;6.53;1.80;;;;;;;2.64;80.86;102326.28;5055355;28;20442;-65
2023/01/28 08:54:15;;;;;;;9.77;1.50;;;;;;;2.53;80.78;102321.56;5054935;28;20451;-66
2023/01/28 08:56:43;;;;;;;5.67;1.67;;;;;;;2.55;80.64;102332.03;5055243;28;20824;-65
2023/01/28 08:59:10;;;;;;;6.80;2.00;;;;;;;2.72;78.43;102334.09;5054281;28;20442;-65
2023/01/28 09:01:37;;;;;;;6.97;1.70;;;;;;;2.61;77.84;102342.75;5055321;28;20442;-65
2023/01/28 09:04:03;;;;;;;6.13;1.70;;;;;;;2.67;78.82;102347.28;5055148;28;20453;-65
2023/01/28 09:06:30;;;;;;;5.93;1.63;;;;;;;2.78;77.92;102345.84;5055021;28;20466;-65
2023/01/28 09:08:57;;;;;;;4.77;1.00;;;;;;;2.80;77.67;102359.03;5054891;28;20488;-66
2023/01/28 09:11:23;;;;;;;5.57;1.23;;;;;;;2.77;78.07;102347.69;5054952;28;20450;-66
2023/01/28 09:13:51;;;;;;;5.80;1.47;;;;;;;2.85;77.89;102361.91;5054707;28;20446;-65
2023/01/28 09:16:18;;;;;;;6.37;1.53;;;;;;;2.94;76.63;102360.66;5055300;28;20468;-66
2023/01/28 09:18:44;;;;;;;5.13;1.33;;;;;;;3.00;74.50;102360.66;5054601;28;20966;-66
2023/01/28 09:21:11;;;;;;;5.10;1.10;;;;;;;3.07;74.49;102367.88;5054598;28;20481;-66
2023/01/28 09:23:38;;;;;;;4.87;1.10;;;;;;;3.08;74.11;102359.63;5054566;28;20986;-64
2023/01/28 09:26:06;;;;;;;5.20;0.80;;;;;;;3.18;73.52;102365.38;5054542;28;20474;-66
2023/01/28 09:28:33;;;;;;;5.10;1.20;;;;;;;3.24;73.28;102361.88;5054694;28;20509;-65
2023/01/28 09:31:06;;;;;;;7.03;1.40;;;;;;;3.26;73.51;102375.06;5054328;28;20438;-66
2023/01/28 09:33:34;;;;;;;7.53;1.07;;;;;;;3.19;71.92;102376.94;5054471;28;20442;-66
2023/01/28 09:36:01;;;;;;;7.93;1.23;;;;;;;3.08;70.33;102381.03;5054130;28;20987;-65
2023/01/28 09:38:28;;;;;;;5.03;1.00;;;;;;;3.01;70.77;102383.75;5054436;28;20537;-66
2023/01/28 09:40:55;;;;;;;8.17;2.20;;;;;;;3.03;71.24;102394.22;5054449;28;20449;-66
2023/01/28 09:43:47;;;;;;;5.53;1.17;;;;;;;3.14;73.64;102384.75;5053929;28;20959;-66
2023/01/28 09:46:17;;;;;;;4.90;1.10;;;;;;;3.16;74.21;102393.41;5054540;28;20462;-66
2023/01/28 09:48:47;;;;;;;4.60;0.77;;;;;;;3.20;74.88;102394.66;5054369;28;20570;-66
2023/01/28 09:51:29;;;;;;;4.90;0.77;;;;;;;3.19;74.18;102387.66;5054022;28;20442;-65
2023/01/28 09:53:58;;;;;;;7.60;0.83;;;;;;;3.14;73.57;102387.41;5054196;28;20434;-68
2023/01/28 09:56:30;;;;;;;4.60;0.70;;;;;;;3.04;72.13;102385.97;5054267;28;20466;-66
2023/01/28 09:58:57;;;;;;;4.83;0.80;;;;;;;3.00;73.07;102383.94;5054162;28;20509;-66
2023/01/28 10:01:48;;;;;;;4.60;0.63;;;;;;;3.05;74.37;102386.81;5054008;28;20449;-67
2023/01/28 10:04:33;;;;;;;4.30;0.70;;;;;;;3.14;73.39;102390.09;5051012;28;20959;-68
2023/01/28 10:07:19;;;;;;;12.60;0.83;;;;;;;3.11;71.90;102385.19;5053952;28;20461;-67
2023/01/28 10:09:53;;;;;;;4.60;0.73;;;;;;;3.10;70.73;102389.72;5053578;28;20544;-67
2023/01/28 10:12:33;;;;;;;4.40;0.70;;;;;;;3.13;71.44;102378.56;5053225;28;20513;-67
2023/01/28 10:15:20;;;;;;;4.90;1.13;;;;;;;3.15;71.43;102376.53;5053628;28;20939;-67
2023/01/28 10:17:50;;;;;;;4.70;1.10;;;;;;;3.17;71.39;102384.34;5053754;28;20537;-67
2023/01/28 10:20:24;;;;;;;5.60;1.17;;;;;;;3.17;71.79;102377.13;5053499;28;21028;-66
2023/01/28 10:22:56;;;;;;;4.30;0.90;;;;;;;3.24;70.67;102379.81;5053449;28;20908;-66
2023/01/28 10:25:25;;;;;;;4.10;0.60;;;;;;;3.29;70.58;102374.66;5053418;28;20433;-67
2023/01/28 10:27:52;;;;;;;4.87;0.80;;;;;;;3.35;70.44;102371.13;5053637;28;20430;-67
2023/01/28 10:30:20;;;;;;;5.20;0.93;;;;;;;3.37;70.58;102369.09;5053349;28;20541;-69
2023/01/28 10:32:53;;;;;;;4.73;0.73;;;;;;;3.34;71.06;102366.00;5053862;28;20813;-67
2023/01/28 10:35:20;;;;;;;5.13;1.10;;;;;;;3.48;70.88;102372.97;5053147;28;20422;-67
2023/01/28 10:37:46;;;;;;;4.50;0.70;;;;;;;3.45;68.74;102370.69;5053661;28;20525;-68
2023/01/28 10:40:15;;;;;;;4.10;0.70;;;;;;;3.43;67.74;102370.09;5053400;28;20442;-68
2023/01/28 10:42:43;;;;;;;5.63;0.73;;;;;;;3.35;66.73;102370.31;5053202;28;20836;-69
2023/01/28 10:45:18;;;;;;;4.90;0.60;;;;;;;3.32;66.97;102366.22;5053251;28;20859;-67
2023/01/28 10:47:50;;;;;;;5.30;1.07;;;;;;;3.38;66.79;102361.88;5053152;28;20438;-70
2023/01/28 10:50:22;;;;;;;4.17;0.53;;;;;;;3.16;66.43;102361.28;5053192;28;20425;-67
2023/01/28 10:52:54;;;;;;;4.40;0.77;;;;;;;3.13;67.92;102365.19;5053080;28;20794;-67
2023/01/28 10:55:22;;;;;;;5.13;1.07;;;;;;;3.23;67.70;102362.06;5053165;28;20453;-68
2023/01/28 10:57:49;;;;;;;5.90;0.90;;;;;;;3.29;66.88;102367.44;5052834;28;20477;-67
2023/01/28 11:00:23;;;;;;;4.60;0.90;;;;;;;3.26;67.25;102357.13;5053134;28;20533;-68
2023/01/28 11:02:50;;;;;;;5.20;1.20;;;;;;;3.31;67.26;102355.69;5052826;28;20426;-68
2023/01/28 11:05:20;;;;;;;6.33;1.27;;;;;;;3.34;67.79;102366.00;5053028;28;20431;-68
2023/01/28 11:07:48;;;;;;;6.07;1.27;;;;;;;3.35;68.00;102368.44;5053101;28;20437;-68
2023/01/28 11:10:32;;;;;;;5.97;1.43;;;;;;;3.39;68.59;102367.00;5052918;28;20486;-67
2023/01/28 11:13:00;;;;;;;4.90;1.20;;;;;;;3.34;67.20;102371.34;5052664;28;20418;-67
2023/01/28 11:15:27;;;;;;;8.63;1.33;;;;;;;3.35;66.97;102360.41;5052713;28;20430;-68
2023/01/28 11:17:57;;;;;;;6.23;1.47;;;;;;;3.38;67.17;102356.50;5052647;28;20947;-68
2023/01/28 11:20:28;;;;;;;5.33;1.30;;;;;;;3.39;67.93;102350.13;5052794;28;20861;-68
2023/01/28 11:22:55;;;;;;;7.03;1.43;;;;;;;3.40;67.59;102349.06;5055285;28;20430;-67
2023/01/28 11:25:29;;;;;;;7.63;1.30;;;;;;;3.32;68.17;102344.78;5056726;28;20454;-68
2023/01/28 11:27:56;;;;;;;6.20;1.60;;;;;;;3.33;68.42;102354.47;5056500;28;20872;-68
2023/01/28 11:30:26;;;;;;;5.53;1.33;;;;;;;3.43;68.14;102357.53;5056872;28;20520;-68
2023/01/28 11:32:59;;;;;;;5.77;1.40;;;;;;;3.35;68.79;102348.88;5056864;28;20470;-67
2023/01/28 11:35:30;;;;;;;4.60;1.20;;;;;;;3.29;69.09;102335.31;5056795;28;20445;-68
2023/01/28 11:37:57;;;;;;;5.13;1.27;;;;;;;3.36;69.01;102339.81;5056926;28;20427;-68
2023/01/28 11:40:24;;;;;;;5.43;1.20;;;;;;;3.37;69.15;102336.13;5056538;28;20441;-69
2023/01/28 11:42:52;;;;;;;6.73;1.53;;;;;;;3.49;69.62;102334.44;5057376;28;20538;-69
2023/01/28 11:45:25;;;;;;;5.10;1.03;;;;;;;3.52;67.66;102334.00;5057560;28;20480;-70
2023/01/28 11:48:03;;;;;;;4.60;0.80;;;;;;;3.49;67.63;102331.75;5057576;28;20495;-69
2023/01/28 11:50:43;;;;;;;5.53;0.87;;;;;;;3.50;68.05;102336.91;5057931;28;20509;-67
2023/01/28 11:53:25;;;;;;;5.10;0.90;;;;;;;3.57;67.19;102333.38;5058806;28;20458;-66
2023/01/28 11:56:04;;;;;;;4.90;0.97;;;;;;;3.52;65.63;102334.00;5057222;28;21117;-69
2023/01/28 11:58:41;;;;;;;6.53;1.67;;;;;;;3.47;66.01;102323.13;5057836;28;20434;-68
2023/01/28 12:01:12;;;;;;;5.30;1.20;;;;;;;3.39;66.14;102334.03;5057457;28;20464;-70
2023/01/28 12:04:10;;;;;;;4.73;0.80;;;;;;;3.38;66.34;102324.38;5057002;28;20466;-68
2023/01/28 12:07:03;;;;;;;5.07;0.97;;;;;;;3.37;67.15;102315.53;5056871;28;20474;-68
2023/01/28 12:09:42;;;;;;;4.50;0.80;;;;;;;3.39;65.57;102320.66;5055151;28;20505;-67